Time;durP1;ratioP1;P1;durP2;ratioP2;P2;SDS_P1;SDS_P2;PMS_P1;PMS_P2;Temp;Humidity;BMP_temperature;BMP_pressure;BME280_temperature;BME280_humidity;BME280_pressure;Samples;Min_cycle;Max_cycle;Signal;HPM_P1;HPM_P2
2023/03/17 00:00:48;;;;;;;4.27;3.57;;;8.10;66.30;;;;;;904110;155;27430;-81
2023/03/17 00:03:15;;;;;;;3.73;3.43;;;8.10;66.30;;;;;;903241;154;27531;-81
2023/03/17 00:05:41;;;;;;;3.57;3.13;;;8.10;66.30;;;;;;904165;154;27526;-81
2023/03/17 00:08:11;;;;;;;3.40;3.17;;;8.10;66.30;;;;;;915127;153;27489;-80
2023/03/17 00:10:37;;;;;;;3.73;3.37;;;8.20;66.30;;;;;;910257;153;27374;-80
2023/03/17 00:13:04;;;;;;;3.43;3.17;;;8.20;66.30;;;;;;927522;153;27995;-80
2023/03/17 00:15:30;;;;;;;3.70;3.40;;;8.20;66.40;;;;;;908522;153;27386;-80
2023/03/17 00:17:57;;;;;;;3.50;3.20;;;8.20;66.30;;;;;;911139;153;27494;-81
2023/03/17 00:20:26;;;;;;;3.83;3.10;;;8.20;66.30;;;;;;909521;153;27369;-80
2023/03/17 00:22:53;;;;;;;3.57;3.27;;;8.20;66.30;;;;;;908255;153;27437;-80
2023/03/17 00:25:19;;;;;;;4.27;3.43;;;8.20;66.30;;;;;;917877;153;27375;-80
2023/03/17 00:27:47;;;;;;;3.63;3.33;;;8.20;66.30;;;;;;916456;153;27368;-80
2023/03/17 00:30:13;;;;;;;7.23;3.80;;;8.20;66.30;;;;;;910485;153;27337;-80
2023/03/17 00:32:39;;;;;;;3.83;3.53;;;8.20;66.30;;;;;;924964;151;27407;-81
2023/03/17 00:35:09;;;;;;;3.57;3.20;;;8.20;66.30;;;;;;911057;153;28109;-80
2023/03/17 00:37:36;;;;;;;3.57;3.20;;;8.10;66.30;;;;;;910330;153;27388;-80
2023/03/17 00:40:02;;;;;;;4.03;3.63;;;8.20;66.50;;;;;;926277;153;27471;-80
2023/03/17 00:42:29;;;;;;;3.60;3.30;;;8.20;66.40;;;;;;925164;153;27398;-80
2023/03/17 00:44:56;;;;;;;5.17;3.60;;;8.20;66.40;;;;;;924326;151;27397;-80
2023/03/17 00:47:22;;;;;;;4.43;3.40;;;8.20;66.40;;;;;;926796;151;27405;-80
2023/03/17 00:49:48;;;;;;;3.77;3.30;;;8.20;66.30;;;;;;925411;151;27376;-80
2023/03/17 00:52:15;;;;;;;3.73;3.43;;;8.30;66.40;;;;;;926547;151;27369;-81
2023/03/17 00:54:41;;;;;;;4.73;3.53;;;8.30;66.40;;;;;;925439;151;28441;-80
2023/03/17 00:57:08;;;;;;;3.77;3.33;;;8.30;65.60;;;;;;926452;151;27480;-80
2023/03/17 00:59:37;;;;;;;3.63;3.33;;;8.40;66.40;;;;;;927047;151;27351;-80
2023/03/17 01:02:04;;;;;;;3.70;3.30;;;8.40;66.30;;;;;;926104;151;27954;-80
2023/03/17 01:04:31;;;;;;;3.90;3.50;;;8.40;65.50;;;;;;925622;151;27349;-80
2023/03/17 01:06:57;;;;;;;4.20;3.80;;;8.50;66.20;;;;;;925803;151;27496;-80
2023/03/17 01:09:24;;;;;;;3.33;3.03;;;8.50;66.30;;;;;;907419;154;27453;-74
2023/03/17 01:11:50;;;;;;;3.40;3.10;;;8.50;66.20;;;;;;925009;151;27351;-74
2023/03/17 01:14:17;;;;;;;3.33;3.07;;;8.50;66.10;;;;;;925767;150;27496;-74
2023/03/17 01:16:43;;;;;;;8.50;3.60;;;8.50;66.10;;;;;;926247;151;27480;-74
2023/03/17 01:19:13;;;;;;;3.50;3.17;;;8.50;66.00;;;;;;909695;153;27397;-74
2023/03/17 01:21:40;;;;;;;3.70;3.13;;;8.50;66.00;;;;;;917338;153;27365;-74
2023/03/17 01:24:07;;;;;;;3.00;2.77;;;8.50;66.00;;;;;;911112;153;27409;-74
2023/03/17 01:26:33;;;;;;;3.70;3.20;;;8.50;66.00;;;;;;927472;151;27404;-74
2023/03/17 01:28:59;;;;;;;3.87;3.40;;;8.50;66.00;;;;;;924932;151;27497;-74
2023/03/17 01:31:26;;;;;;;4.20;3.40;;;8.50;65.90;;;;;;909261;153;27369;-74
2023/03/17 01:33:53;;;;;;;3.80;3.47;;;8.40;65.80;;;;;;928330;151;27370;-75
2023/03/17 01:36:19;;;;;;;4.73;3.53;;;8.40;65.90;;;;;;909489;153;27408;-74
2023/03/17 01:38:49;;;;;;;3.40;3.13;;;8.40;65.90;;;;;;925572;151;27411;-74
2023/03/17 01:41:13;;;;;;;3.57;3.20;;;8.40;66.00;;;;;;909934;153;27464;-75
2023/03/17 01:43:39;;;;;;;3.60;3.30;;;8.30;65.90;;;;;;925893;151;27332;-74
2023/03/17 01:46:19;;;;;;;4.10;3.70;;;8.30;66.00;;;;;;908349;153;27463;-74
2023/03/17 01:48:46;;;;;;;3.70;3.10;;;8.30;66.00;;;;;;912310;153;27404;-75
2023/03/17 01:51:13;;;;;;;3.57;3.27;;;8.30;66.10;;;;;;920924;151;27436;-74
2023/03/17 01:53:39;;;;;;;3.50;3.20;;;8.30;66.10;;;;;;909579;153;27389;-74
2023/03/17 01:56:06;;;;;;;3.07;2.87;;;8.20;66.10;;;;;;912858;153;27539;-74
2023/03/17 01:58:33;;;;;;;3.87;3.47;;;8.30;66.30;;;;;;909569;153;28140;-74
2023/03/17 02:01:00;;;;;;;3.70;3.40;;;8.30;66.30;;;;;;924621;151;27459;-74
2023/03/17 02:03:26;;;;;;;3.80;3.43;;;8.20;66.30;;;;;;925135;151;27340;-74
2023/03/17 02:05:52;;;;;;;4.53;3.20;;;8.20;66.30;;;;;;929855;150;27373;-74
2023/03/17 02:08:19;;;;;;;3.60;3.30;;;8.30;66.40;;;;;;925263;151;27467;-74
2023/03/17 02:10:46;;;;;;;4.30;3.10;;;8.30;66.40;;;;;;926380;151;27412;-74
2023/03/17 02:13:12;;;;;;;3.70;3.37;;;8.30;66.40;;;;;;918375;153;27431;-74
2023/03/17 02:15:39;;;;;;;3.60;3.30;;;8.30;66.40;;;;;;912217;153;27420;-74
2023/03/17 02:18:05;;;;;;;3.87;3.50;;;8.30;66.40;;;;;;917070;153;27404;-75
2023/03/17 02:20:33;;;;;;;3.47;3.20;;;8.30;66.40;;;;;;910713;153;27366;-74
2023/03/17 02:22:58;;;;;;;3.37;3.07;;;8.30;66.40;;;;;;910949;153;27496;-75
2023/03/17 02:25:25;;;;;;;3.90;3.50;;;8.30;66.40;;;;;;926032;151;27384;-74
2023/03/17 02:27:52;;;;;;;3.77;3.40;;;8.30;66.40;;;;;;927351;151;27995;-74
2023/03/17 02:30:18;;;;;;;3.63;3.33;;;8.30;66.40;;;;;;910734;153;27415;-75
2023/03/17 02:32:46;;;;;;;3.97;3.50;;;8.30;66.60;;;;;;910210;153;27489;-74
2023/03/17 02:35:12;;;;;;;4.50;3.20;;;8.20;66.40;;;;;;926704;151;27473;-74
2023/03/17 02:37:38;;;;;;;4.77;3.30;;;8.20;66.40;;;;;;928516;151;27363;-74
2023/03/17 02:40:05;;;;;;;4.00;3.60;;;8.20;66.50;;;;;;925874;151;27393;-74
2023/03/17 02:42:31;;;;;;;3.77;3.47;;;8.10;66.40;;;;;;924918;151;28381;-74
2023/03/17 02:44:58;;;;;;;5.03;3.43;;;8.10;66.60;;;;;;918506;153;27703;-74
2023/03/17 02:47:24;;;;;;;3.70;3.40;;;8.00;66.50;;;;;;910518;153;27373;-74
2023/03/17 02:49:51;;;;;;;3.80;3.40;;;8.00;66.60;;;;;;926666;151;27403;-74
2023/03/17 02:52:18;;;;;;;4.20;3.10;;;7.90;66.60;;;;;;926258;151;27403;-74
2023/03/17 02:54:44;;;;;;;5.10;3.57;;;7.90;66.70;;;;;;910422;153;27442;-74
2023/03/17 02:57:11;;;;;;;4.33;3.73;;;7.80;66.80;;;;;;910217;153;27397;-74
2023/03/17 02:59:37;;;;;;;3.43;3.20;;;7.80;66.90;;;;;;927097;151;27927;-74
2023/03/17 03:02:04;;;;;;;3.70;3.40;;;7.70;67.70;;;;;;925492;151;27575;-74
2023/03/17 03:04:31;;;;;;;4.03;3.63;;;7.70;67.00;;;;;;908741;153;27433;-74
2023/03/17 03:06:57;;;;;;;4.60;3.63;;;7.70;67.90;;;;;;908700;153;27351;-74
2023/03/17 03:09:24;;;;;;;3.67;3.37;;;7.70;67.20;;;;;;926561;151;27335;-74
2023/03/17 03:11:51;;;;;;;4.60;3.90;;;7.60;67.20;;;;;;918504;152;27416;-74
2023/03/17 03:14:17;;;;;;;4.63;3.47;;;7.60;67.20;;;;;;919206;152;27411;-74
2023/03/17 03:16:43;;;;;;;3.53;3.27;;;7.50;67.30;;;;;;918464;152;27776;-75
2023/03/17 03:19:10;;;;;;;4.87;4.00;;;7.50;67.30;;;;;;903346;155;27314;-74
2023/03/17 03:21:37;;;;;;;4.23;3.83;;;7.50;67.40;;;;;;904666;154;27437;-74
2023/03/17 03:24:03;;;;;;;3.40;3.10;;;7.50;67.50;;;;;;904508;154;27430;-74
2023/03/17 03:26:30;;;;;;;3.70;3.40;;;7.40;67.50;;;;;;901550;155;28047;-74
2023/03/17 03:28:57;;;;;;;4.13;3.70;;;7.40;68.30;;;;;;901945;155;27371;-74
2023/03/17 03:31:23;;;;;;;4.70;3.90;;;7.40;67.70;;;;;;902155;155;27388;-75
2023/03/17 03:33:50;;;;;;;4.00;3.40;;;7.40;67.70;;;;;;917936;152;27365;-74
2023/03/17 03:36:17;;;;;;;4.67;3.63;;;7.30;67.80;;;;;;904406;155;27505;-74
2023/03/17 03:38:43;;;;;;;3.80;3.50;;;7.30;67.80;;;;;;903051;155;27392;-74
2023/03/17 03:41:10;;;;;;;3.80;3.20;;;7.30;67.80;;;;;;904391;154;27426;-74
2023/03/17 03:43:36;;;;;;;5.47;3.67;;;7.20;67.80;;;;;;904890;154;27377;-74
2023/03/17 03:46:02;;;;;;;5.43;3.80;;;7.20;67.80;;;;;;923404;151;27419;-74
2023/03/17 03:48:29;;;;;;;3.60;3.30;;;7.20;67.80;;;;;;941593;148;27337;-74
2023/03/17 03:50:58;;;;;;;4.27;3.90;;;7.20;67.90;;;;;;918531;152;27457;-74
2023/03/17 03:53:25;;;;;;;3.87;3.43;;;7.20;68.70;;;;;;918226;152;27404;-74
2023/03/17 03:55:51;;;;;;;3.77;3.47;;;7.20;68.10;;;;;;905056;154;27413;-74
2023/03/17 03:58:18;;;;;;;4.60;4.20;;;7.10;67.90;;;;;;903967;154;27293;-74
2023/03/17 04:00:45;;;;;;;5.20;4.70;;;7.10;67.90;;;;;;919028;152;27403;-80
2023/03/17 04:03:11;;;;;;;5.87;5.23;;;7.10;68.00;;;;;;916978;152;27309;-80
2023/03/17 04:05:38;;;;;;;6.57;4.97;;;7.10;68.00;;;;;;908969;154;27545;-79
2023/03/17 04:08:05;;;;;;;5.40;4.90;;;7.00;68.00;;;;;;903546;154;27408;-79
2023/03/17 04:10:31;;;;;;;5.50;4.93;;;7.00;68.10;;;;;;918588;151;27413;-82
2023/03/17 04:12:58;;;;;;;4.90;4.50;;;7.00;68.10;;;;;;919335;150;27314;-81
2023/03/17 04:15:24;;;;;;;4.60;4.10;;;7.00;68.20;;;;;;917377;152;27394;-80
2023/03/17 04:17:53;;;;;;;4.50;3.83;;;6.90;68.60;;;;;;918221;152;27497;-80
2023/03/17 04:20:17;;;;;;;4.93;4.40;;;6.90;68.20;;;;;;904521;154;27343;-80
2023/03/17 04:22:44;;;;;;;6.13;3.67;;;6.90;68.40;;;;;;904426;154;27365;-80
2023/03/17 04:25:10;;;;;;;3.30;3.00;;;6.90;68.40;;;;;;918980;152;27380;-80
2023/03/17 04:27:37;;;;;;;3.83;3.53;;;6.80;68.40;;;;;;903329;154;27537;-80
2023/03/17 04:30:04;;;;;;;3.63;3.33;;;6.80;69.20;;;;;;920443;152;27341;-80
2023/03/17 04:32:30;;;;;;;3.77;3.47;;;6.70;68.50;;;;;;903065;155;27424;-80
2023/03/17 04:34:57;;;;;;;4.50;3.70;;;6.70;68.50;;;;;;902374;154;27406;-81
2023/03/17 04:37:24;;;;;;;3.97;3.60;;;6.70;68.60;;;;;;911964;154;27581;-81
2023/03/17 04:39:51;;;;;;;4.00;3.67;;;6.70;68.70;;;;;;904198;154;27418;-80
2023/03/17 04:42:17;;;;;;;4.60;4.20;;;6.60;68.80;;;;;;902402;155;27993;-79
2023/03/17 04:44:43;;;;;;;3.90;3.50;;;6.60;68.90;;;;;;920583;152;27494;-82
2023/03/17 04:47:10;;;;;;;3.57;3.27;;;6.60;68.90;;;;;;903528;155;27423;-82
2023/03/17 04:49:36;;;;;;;3.90;3.60;;;6.50;68.90;;;;;;901744;155;27431;-83
2023/03/17 04:52:03;;;;;;;3.67;3.37;;;6.50;69.00;;;;;;919770;152;27444;-83
2023/03/17 04:54:30;;;;;;;4.50;3.50;;;6.50;69.20;;;;;;902762;154;27419;-83
2023/03/17 04:56:56;;;;;;;4.07;3.63;;;6.50;69.30;;;;;;923868;151;27326;-83
2023/03/17 04:59:23;;;;;;;4.90;3.53;;;6.40;69.20;;;;;;939443;148;27381;-83
2023/03/17 05:01:49;;;;;;;3.77;3.47;;;6.40;69.30;;;;;;905472;153;27712;-83
2023/03/17 05:04:16;;;;;;;4.73;4.30;;;6.40;69.40;;;;;;901400;155;27528;-83
2023/03/17 05:06:42;;;;;;;4.20;3.80;;;6.40;69.50;;;;;;905747;154;27395;-83
2023/03/17 05:09:09;;;;;;;4.23;3.83;;;6.30;69.60;;;;;;913488;153;27429;-83
2023/03/17 05:11:36;;;;;;;4.20;3.80;;;6.30;69.50;;;;;;902407;155;27552;-82
2023/03/17 05:14:02;;;;;;;5.27;4.00;;;6.30;69.60;;;;;;912371;154;27466;-82
2023/03/17 05:16:29;;;;;;;3.97;3.67;;;6.20;69.60;;;;;;905494;155;27392;-83
2023/03/17 05:18:55;;;;;;;3.87;3.57;;;6.20;69.70;;;;;;904799;154;27523;-83
2023/03/17 05:21:22;;;;;;;3.83;3.53;;;6.20;69.80;;;;;;903013;155;27416;-83
2023/03/17 05:23:49;;;;;;;5.43;3.67;;;6.20;69.90;;;;;;918868;152;27455;-81
2023/03/17 05:26:15;;;;;;;3.70;3.40;;;6.10;69.90;;;;;;918403;152;27302;-80
2023/03/17 05:28:42;;;;;;;4.10;3.70;;;6.10;70.00;;;;;;921293;152;28519;-80
2023/03/17 05:31:08;;;;;;;4.20;3.80;;;6.10;70.00;;;;;;924244;151;27403;-80
2023/03/17 05:33:36;;;;;;;4.30;3.80;;;6.00;70.00;;;;;;939383;148;27401;-80
2023/03/17 05:36:02;;;;;;;4.67;3.37;;;6.00;70.20;;;;;;911468;154;27357;-80
2023/03/17 05:38:28;;;;;;;4.13;3.43;;;6.00;70.30;;;;;;906357;154;27350;-80
2023/03/17 05:40:55;;;;;;;4.57;3.80;;;5.90;70.30;;;;;;940080;148;27382;-80
2023/03/17 05:43:21;;;;;;;4.67;3.77;;;5.90;69.60;;;;;;924249;151;27489;-80
2023/03/17 05:45:49;;;;;;;4.50;4.10;;;5.90;70.50;;;;;;903270;154;27331;-80
2023/03/17 05:48:14;;;;;;;4.63;3.90;;;5.90;70.60;;;;;;923993;151;27358;-82
2023/03/17 05:50:41;;;;;;;5.27;4.40;;;5.80;70.70;;;;;;940384;148;27333;-82
2023/03/17 05:53:08;;;;;;;4.23;3.83;;;5.80;70.80;;;;;;925594;151;27394;-81
2023/03/17 05:55:34;;;;;;;3.97;3.67;;;5.80;70.90;;;;;;904819;153;28035;-81
2023/03/17 05:58:03;;;;;;;4.73;4.33;;;5.80;71.00;;;;;;904360;154;27479;-80
2023/03/17 06:00:28;;;;;;;4.37;3.93;;;5.80;71.10;;;;;;917643;152;27458;-78
2023/03/17 06:02:54;;;;;;;4.37;3.87;;;5.90;71.20;;;;;;902261;155;27500;-78
2023/03/17 06:05:21;;;;;;;5.30;3.57;;;5.90;71.30;;;;;;920135;152;27432;-78
2023/03/17 06:07:50;;;;;;;4.63;4.20;;;5.90;71.40;;;;;;900913;155;27394;-78
2023/03/17 06:10:16;;;;;;;4.27;3.87;;;6.00;71.40;;;;;;925382;151;27452;-78
2023/03/17 06:12:43;;;;;;;4.23;3.83;;;6.00;71.40;;;;;;906261;153;27538;-78
2023/03/17 06:15:10;;;;;;;4.73;4.00;;;6.10;71.40;;;;;;927270;151;27414;-78
2023/03/17 06:17:36;;;;;;;4.60;4.20;;;6.10;71.40;;;;;;926680;151;27311;-78
2023/03/17 06:20:03;;;;;;;4.37;3.70;;;6.30;71.80;;;;;;909593;153;27338;-78
2023/03/17 06:22:29;;;;;;;4.53;3.93;;;6.40;72.30;;;;;;908086;153;27693;-78
2023/03/17 06:24:56;;;;;;;4.40;4.00;;;6.60;72.80;;;;;;926613;151;27483;-78
2023/03/17 06:27:22;;;;;;;5.87;4.10;;;6.90;73.50;;;;;;925790;150;27529;-78
2023/03/17 06:29:49;;;;;;;3.80;3.50;;;7.40;74.20;;;;;;909776;153;27334;-77
2023/03/17 06:32:16;;;;;;;4.30;3.90;;;7.80;74.60;;;;;;924247;150;27476;-77
2023/03/17 06:34:43;;;;;;;3.97;3.67;;;8.40;74.30;;;;;;908658;154;27375;-77
2023/03/17 06:37:09;;;;;;;3.93;3.63;;;9.00;74.00;;;;;;913385;153;27495;-77
2023/03/17 06:39:36;;;;;;;4.27;3.87;;;9.60;73.70;;;;;;911838;153;27344;-77
2023/03/17 06:42:02;;;;;;;4.50;3.60;;;10.20;73.10;;;;;;923145;153;27454;-78
2023/03/17 06:44:29;;;;;;;4.13;3.70;;;10.80;72.50;;;;;;909882;153;27443;-78
2023/03/17 06:46:55;;;;;;;3.80;3.50;;;11.50;71.90;;;;;;912313;153;27411;-78
2023/03/17 06:49:22;;;;;;;3.87;3.47;;;12.10;71.40;;;;;;910736;153;27395;-78
2023/03/17 06:51:48;;;;;;;3.52;3.22;;;12.80;70.70;;;;;;910136;153;27490;-78
2023/03/17 06:54:17;;;;;;;3.52;3.15;;;13.40;69.90;;;;;;905029;154;27382;-78
2023/03/17 06:56:43;;;;;;;3.40;3.10;;;14.10;69.00;;;;;;907869;153;27439;-78
2023/03/17 06:59:09;;;;;;;4.17;3.30;;;14.70;68.00;;;;;;910793;153;27401;-78
2023/03/17 07:01:35;;;;;;;3.00;2.80;;;15.30;67.00;;;;;;909233;153;27830;-77
2023/03/17 07:04:01;;;;;;;3.72;3.33;;;15.90;65.80;;;;;;910182;153;27406;-78
2023/03/17 07:06:28;;;;;;;3.35;3.05;;;16.40;64.90;;;;;;928114;151;27413;-77
2023/03/17 07:08:55;;;;;;;4.08;3.00;;;16.90;63.70;;;;;;909500;153;27469;-78
2023/03/17 07:11:22;;;;;;;3.20;2.90;;;17.40;62.50;;;;;;907488;154;27363;-78
2023/03/17 07:13:48;;;;;;;3.60;3.30;;;17.80;61.80;;;;;;923256;151;27365;-79
2023/03/17 07:16:15;;;;;;;3.55;3.00;;;18.20;60.90;;;;;;903516;154;27352;-77
2023/03/17 07:18:41;;;;;;;3.22;2.85;;;18.50;60.00;;;;;;902513;155;27408;-78
2023/03/17 07:21:08;;;;;;;4.05;3.58;;;18.90;59.70;;;;;;902494;155;27547;-79
2023/03/17 07:23:34;;;;;;;4.08;3.37;;;19.40;59.50;;;;;;918139;152;27342;-78
2023/03/17 07:26:01;;;;;;;3.15;2.85;;;19.80;59.00;;;;;;918915;152;27415;-78
2023/03/17 07:28:27;;;;;;;4.30;2.75;;;20.30;58.70;;;;;;916825;152;27714;-78
2023/03/17 07:30:56;;;;;;;3.65;2.72;;;20.70;57.80;;;;;;919788;150;27385;-78
2023/03/17 07:33:20;;;;;;;2.60;2.40;;;21.20;57.30;;;;;;904010;153;27425;-78
2023/03/17 07:35:47;;;;;;;2.85;2.58;;;21.50;56.60;;;;;;924441;151;27301;-78
2023/03/17 07:38:14;;;;;;;3.83;2.92;;;22.00;56.10;;;;;;940061;148;27420;-78
2023/03/17 07:40:40;;;;;;;3.00;2.80;;;22.30;55.10;;;;;;906317;153;27490;-78
2023/03/17 07:43:07;;;;;;;2.80;2.60;;;22.60;54.00;;;;;;902436;153;27300;-78
2023/03/17 07:45:34;;;;;;;2.77;2.58;;;22.70;53.40;;;;;;911639;153;27302;-78
2023/03/17 07:48:00;;;;;;;3.42;2.90;;;22.90;53.00;;;;;;902206;153;27392;-78
2023/03/17 07:50:26;;;;;;;3.40;3.10;;;23.00;52.60;;;;;;917904;152;27428;-78
2023/03/17 07:52:53;;;;;;;2.80;2.60;;;23.10;52.10;;;;;;903629;154;27512;-78
2023/03/17 07:55:20;;;;;;;3.85;2.60;;;23.20;51.50;;;;;;904943;154;27310;-78
2023/03/17 07:57:46;;;;;;;2.92;2.52;;;23.30;51.20;;;;;;938836;148;27321;-78
2023/03/17 08:00:13;;;;;;;2.58;2.37;;;23.40;51.30;;;;;;926379;150;27431;-78
2023/03/17 08:02:40;;;;;;;2.95;2.37;;;23.50;51.10;;;;;;924633;151;27496;-78
2023/03/17 08:05:06;;;;;;;2.87;2.67;;;23.70;51.10;;;;;;939992;148;27339;-78
2023/03/17 08:07:33;;;;;;;3.17;2.80;;;23.90;50.60;;;;;;938967;148;27300;-78
2023/03/17 08:09:59;;;;;;;2.92;2.62;;;24.10;50.60;;;;;;939168;148;27366;-79
2023/03/17 08:12:26;;;;;;;2.77;2.58;;;24.40;50.50;;;;;;938907;148;27377;-78
2023/03/17 08:14:54;;;;;;;3.12;2.92;;;24.60;50.10;;;;;;940157;148;27405;-78
2023/03/17 08:17:19;;;;;;;2.90;2.67;;;24.90;49.50;;;;;;925315;151;27417;-78
2023/03/17 08:19:46;;;;;;;2.90;2.70;;;25.20;49.30;;;;;;925640;151;27406;-78
2023/03/17 08:22:13;;;;;;;2.42;2.33;;;25.50;49.20;;;;;;941380;148;27370;-79
2023/03/17 08:24:41;;;;;;;2.90;2.70;;;25.70;48.50;;;;;;925598;151;27479;-78
2023/03/17 08:27:07;;;;;;;2.55;2.35;;;26.00;48.20;;;;;;919450;152;27889;-78
2023/03/17 08:29:32;;;;;;;2.95;2.67;;;26.20;47.80;;;;;;902911;154;27422;-78
2023/03/17 08:31:59;;;;;;;3.58;2.70;;;26.40;47.20;;;;;;905377;154;27451;-78
2023/03/17 08:34:25;;;;;;;2.83;2.58;;;26.50;46.70;;;;;;925305;151;27411;-78
2023/03/17 08:36:52;;;;;;;2.60;2.40;;;26.60;46.60;;;;;;936301;148;27383;-78
2023/03/17 08:39:19;;;;;;;2.60;2.40;;;26.70;46.60;;;;;;903096;154;27307;-78
2023/03/17 08:41:45;;;;;;;3.58;2.60;;;26.90;46.40;;;;;;918044;152;27349;-78
2023/03/17 08:44:12;;;;;;;2.90;2.65;;;27.20;46.00;;;;;;902305;155;27724;-78
2023/03/17 08:46:39;;;;;;;2.60;2.40;;;27.20;45.30;;;;;;911086;154;27499;-79
2023/03/17 08:49:05;;;;;;;4.22;2.80;;;27.30;45.00;;;;;;903611;154;27336;-78
2023/03/17 08:51:33;;;;;;;2.70;2.50;;;27.20;44.00;;;;;;939670;148;27795;-79
2023/03/17 08:53:58;;;;;;;2.22;2.12;;;27.00;43.50;;;;;;924581;151;27405;-78
2023/03/17 08:56:25;;;;;;;2.77;2.58;;;26.70;43.00;;;;;;923596;151;27729;-78
2023/03/17 08:58:51;;;;;;;3.52;2.95;;;26.40;42.70;;;;;;924840;151;27336;-78
2023/03/17 09:01:19;;;;;;;3.40;3.02;;;26.00;42.40;;;;;;923761;151;27432;-78
2023/03/17 09:03:45;;;;;;;4.72;2.60;;;25.50;42.50;;;;;;924691;151;27406;-78
2023/03/17 09:06:12;;;;;;;2.70;2.50;;;25.10;42.60;;;;;;922238;151;27391;-78
2023/03/17 09:08:38;;;;;;;3.70;2.83;;;24.80;43.10;;;;;;922223;151;27897;-78
2023/03/17 09:11:04;;;;;;;3.33;2.77;;;24.60;43.50;;;;;;923410;151;27371;-78
2023/03/17 09:13:31;;;;;;;3.22;2.92;;;24.40;43.80;;;;;;923340;151;27438;-78
2023/03/17 09:15:58;;;;;;;2.45;2.25;;;24.20;43.60;;;;;;928015;151;27481;-78
2023/03/17 09:18:24;;;;;;;3.12;2.70;;;24.10;43.80;;;;;;911232;153;27406;-78
2023/03/17 09:20:50;;;;;;;2.62;2.30;;;23.90;43.90;;;;;;910760;153;27389;-78
2023/03/17 09:23:17;;;;;;;2.83;2.60;;;23.70;43.90;;;;;;925229;151;27328;-78
2023/03/17 09:25:44;;;;;;;3.65;2.50;;;23.60;44.20;;;;;;910709;153;27373;-77
2023/03/17 09:28:10;;;;;;;4.85;3.75;;;23.50;44.30;;;;;;926828;151;27401;-78
2023/03/17 09:30:37;;;;;;;4.08;3.60;;;23.40;44.40;;;;;;910497;153;28189;-77
2023/03/17 09:33:03;;;;;;;3.42;3.00;;;23.40;44.60;;;;;;913648;153;27404;-78
2023/03/17 09:35:31;;;;;;;3.37;2.50;;;23.30;44.60;;;;;;911553;153;27378;-78
2023/03/17 09:37:57;;;;;;;2.72;2.20;;;23.30;44.70;;;;;;910506;153;27832;-78
2023/03/17 09:40:23;;;;;;;2.83;2.62;;;23.30;44.70;;;;;;907803;153;27424;-78
2023/03/17 09:42:57;;;;;;;3.08;2.70;;;23.30;44.70;;;;;;924502;151;27420;-78
2023/03/17 09:45:37;;;;;;;3.35;2.35;;;23.40;44.70;;;;;;910136;153;27430;-78
2023/03/17 09:48:19;;;;;;;2.70;2.50;;;23.40;44.80;;;;;;911575;153;27388;-77
2023/03/17 09:50:54;;;;;;;2.60;2.40;;;23.40;44.70;;;;;;918027;153;27420;-77
2023/03/17 09:53:21;;;;;;;2.42;2.22;;;23.40;44.70;;;;;;910407;153;27342;-77
2023/03/17 09:55:47;;;;;;;2.02;1.92;;;23.30;44.40;;;;;;910902;153;27491;-77
2023/03/17 09:58:14;;;;;;;2.62;2.35;;;23.30;44.30;;;;;;924803;151;27420;-76
2023/03/17 10:00:40;;;;;;;2.62;2.42;;;23.20;44.10;;;;;;908937;153;27327;-76
2023/03/17 10:03:08;;;;;;;2.58;2.35;;;23.10;44.10;;;;;;906389;154;27364;-77
2023/03/17 10:05:37;;;;;;;2.33;2.12;;;23.00;44.10;;;;;;925146;151;27377;-77
2023/03/17 10:08:06;;;;;;;2.47;2.30;;;22.80;44.10;;;;;;925552;151;27493;-77
2023/03/17 10:10:38;;;;;;;2.42;2.12;;;22.70;44.20;;;;;;911319;153;27364;-77
2023/03/17 10:13:08;;;;;;;2.30;2.10;;;22.50;44.20;;;;;;910524;153;27368;-77
2023/03/17 10:15:36;;;;;;;3.40;2.25;;;22.40;44.30;;;;;;904439;155;27457;-77
2023/03/17 10:18:01;;;;;;;4.42;3.17;;;22.20;44.30;;;;;;910994;154;27938;-77
2023/03/17 10:20:27;;;;;;;6.30;2.30;;;22.10;44.30;;;;;;902358;155;27348;-77
2023/03/17 10:22:56;;;;;;;3.98;2.58;;;22.00;44.60;;;;;;920103;152;27342;-77
2023/03/17 10:25:23;;;;;;;2.55;2.35;;;21.90;44.50;;;;;;901005;155;27411;-77
2023/03/17 10:27:52;;;;;;;3.45;2.47;;;21.80;44.00;;;;;;911916;154;27828;-77
2023/03/17 10:30:19;;;;;;;2.58;2.37;;;21.70;44.60;;;;;;902069;155;27382;-77
2023/03/17 10:32:47;;;;;;;2.50;2.30;;;21.60;44.50;;;;;;917975;152;27302;-77
2023/03/17 10:35:13;;;;;;;2.70;2.50;;;21.50;44.30;;;;;;917722;152;27341;-77
2023/03/17 10:37:39;;;;;;;2.62;2.42;;;21.40;44.60;;;;;;911091;154;27386;-77
2023/03/17 10:40:09;;;;;;;2.58;2.37;;;21.20;44.60;;;;;;906935;153;27346;-77
2023/03/17 10:42:32;;;;;;;3.50;2.47;;;21.10;45.30;;;;;;910140;154;27886;-77
2023/03/17 10:45:12;;;;;;;2.62;2.35;;;21.00;44.90;;;;;;903292;153;27400;-77
2023/03/17 10:47:37;;;;;;;4.35;2.22;;;20.90;45.20;;;;;;917201;152;27507;-76
2023/03/17 10:50:04;;;;;;;2.62;2.42;;;20.80;45.50;;;;;;911899;154;27352;-76
2023/03/17 10:52:31;;;;;;;3.58;2.50;;;20.80;45.60;;;;;;899879;155;27434;-76
2023/03/17 10:54:57;;;;;;;3.52;2.45;;;20.70;45.70;;;;;;905257;154;27383;-76
2023/03/17 10:57:23;;;;;;;2.20;2.00;;;20.70;45.70;;;;;;920351;152;27499;-77
2023/03/17 10:59:51;;;;;;;2.37;2.10;;;20.70;45.70;;;;;;922916;151;27399;-74
2023/03/17 11:02:29;;;;;;;2.72;2.22;;;20.80;45.80;;;;;;938956;148;27360;-74
2023/03/17 11:04:58;;;;;;;2.25;2.05;;;20.80;45.90;;;;;;924347;151;27379;-74
2023/03/17 11:07:28;;;;;;;3.02;2.27;;;20.80;46.00;;;;;;901886;154;27413;-74
2023/03/17 11:09:53;;;;;;;2.30;2.10;;;20.90;46.00;;;;;;917652;152;27535;-74
2023/03/17 11:12:26;;;;;;;2.55;2.35;;;20.90;45.80;;;;;;911370;154;27370;-74
2023/03/17 11:14:58;;;;;;;2.80;2.60;;;21.00;45.60;;;;;;905610;153;27460;-74
2023/03/17 11:17:27;;;;;;;1.92;1.82;;;21.00;45.90;;;;;;918387;153;27418;-74
2023/03/17 11:19:56;;;;;;;3.02;2.33;;;21.00;45.30;;;;;;910376;153;27377;-74
2023/03/17 11:22:29;;;;;;;1.95;1.85;;;21.00;45.70;;;;;;911181;153;27444;-74
2023/03/17 11:24:58;;;;;;;2.65;2.30;;;21.00;45.60;;;;;;912109;152;27511;-74
2023/03/17 11:27:31;;;;;;;2.83;2.10;;;21.00;45.60;;;;;;910078;153;27376;-74
2023/03/17 11:30:28;;;;;;;2.00;1.87;;;21.00;45.50;;;;;;909731;153;27524;-74
2023/03/17 11:33:04;;;;;;;3.15;2.10;;;21.00;45.50;;;;;;908194;153;27524;-74
2023/03/17 11:35:45;;;;;;;2.62;1.92;;;21.00;45.50;;;;;;910685;153;27508;-74
2023/03/17 11:38:27;;;;;;;1.85;1.75;;;21.00;45.60;;;;;;909554;153;27501;-74
2023/03/17 11:41:31;;;;;;;1.90;1.80;;;20.90;45.60;;;;;;925377;153;27366;-74
2023/03/17 11:43:58;;;;;;;1.80;1.70;;;20.90;45.60;;;;;;907676;153;27323;-74
2023/03/17 11:46:26;;;;;;;1.95;1.80;;;20.90;45.60;;;;;;925213;151;27342;-74
2023/03/17 11:49:02;;;;;;;1.60;1.50;;;20.90;45.50;;;;;;925448;151;27406;-74
2023/03/17 11:51:58;;;;;;;1.72;1.62;;;20.90;45.50;;;;;;918337;153;27368;-74
2023/03/17 11:54:34;;;;;;;1.70;1.60;;;20.90;45.60;;;;;;908504;153;27453;-74
2023/03/17 11:57:01;;;;;;;2.02;1.87;;;20.90;45.50;;;;;;911928;153;27368;-74
2023/03/17 11:59:50;;;;;;;1.87;1.77;;;20.90;45.40;;;;;;912149;153;27534;-74
2023/03/17 12:02:26;;;;;;;2.05;1.40;;;20.90;45.50;;;;;;909680;153;27431;-74
2023/03/17 12:04:59;;;;;;;1.80;1.55;;;20.90;45.70;;;;;;917250;153;27426;-74
2023/03/17 12:07:29;;;;;;;1.60;1.50;;;20.90;45.60;;;;;;910023;153;27472;-74
2023/03/17 12:09:55;;;;;;;1.65;1.42;;;20.90;45.70;;;;;;917598;153;27502;-74
2023/03/17 12:12:21;;;;;;;1.57;1.47;;;21.00;45.80;;;;;;900043;153;27387;-74
2023/03/17 12:14:48;;;;;;;2.35;1.80;;;21.00;46.00;;;;;;925233;151;27314;-74
2023/03/17 12:17:33;;;;;;;1.32;1.22;;;21.10;46.00;;;;;;906052;153;27611;-74
2023/03/17 12:20:04;;;;;;;1.70;1.60;;;21.10;45.70;;;;;;902916;155;27446;-74
2023/03/17 12:22:51;;;;;;;1.47;1.37;;;21.20;45.60;;;;;;902702;155;27477;-74
2023/03/17 12:25:32;;;;;;;2.20;1.72;;;21.30;45.50;;;;;;891719;154;27346;-74
2023/03/17 12:28:01;;;;;;;1.60;1.50;;;21.40;45.40;;;;;;939736;148;27622;-74
2023/03/17 12:30:30;;;;;;;2.22;1.60;;;21.40;45.30;;;;;;924371;151;27383;-74
2023/03/17 12:33:15;;;;;;;2.50;1.40;;;21.40;45.20;;;;;;920409;151;27361;-74
2023/03/17 12:35:42;;;;;;;1.42;1.32;;;21.40;45.20;;;;;;940237;148;27381;-74
2023/03/17 12:38:11;;;;;;;1.60;1.50;;;21.40;44.90;;;;;;923542;151;27360;-74
2023/03/17 12:40:52;;;;;;;1.67;1.27;;;21.40;44.80;;;;;;924579;151;27363;-74
2023/03/17 12:43:28;;;;;;;1.62;1.50;;;21.40;44.90;;;;;;939358;148;27280;-74
2023/03/17 12:46:32;;;;;;;1.30;1.20;;;21.40;45.00;;;;;;938934;148;27487;-74
2023/03/17 12:49:22;;;;;;;1.60;1.20;;;21.30;45.10;;;;;;915761;154;27488;-74
2023/03/17 12:51:49;;;;;;;1.60;1.50;;;21.30;45.30;;;;;;916360;154;27406;-74
2023/03/17 12:54:25;;;;;;;2.17;1.40;;;21.30;45.40;;;;;;927806;147;27467;-74
2023/03/17 12:56:51;;;;;;;1.50;1.40;;;21.30;45.40;;;;;;939180;148;27337;-74